Main page
METAR-TAF:

METAR-TAF

Airports :

Cornwall Airport Newquay

Newquay Cornwall, England

latitude: 50-26N, longitude: 005-00W, elevation: 119 m

Current weather observation

The report was made 32 minutes ago, at 06:20 UTC
Wind 16 kt from the Northwest
Temperature 7°C
Humidity 76%
Pressure 1026 hPa
Visibility 10 km or more

METAR: EGHQ 170620Z AUTO 32016KT 9999 BKN023/// 07/03 Q1026

Time: 06:52 (06:52 UTC)

Forecast

The report was made 1 hour and 57 minutes ago, at 04:55 UTC
Forecast valid from 17 at 06 UTC to 17 at 15 UTC
Wind 14 kt from the Northwest
Visibility 10 km or more
Scattered clouds at a height of 3500 ft
Probability 30% :
Temporary
from 17 at 06 UTC to 17 at 09 UTC
Visibility: 8000 m
light rain

TAF: EGHQ 170455Z 1706/1715 31014KT 9999 SCT035 PROB30 TEMPO 1706/1709 8000 -RA

Weather observations and forecasts of more than 4000 airports (METAR and TAF reports).

The available stations are represented by yellow and red dots on the map.

Hover mouse over dot to see the name of the station.

Then click to see weather observations and forecasts.

To change the map : click on the green buttons with a black cross to zoom in, on the green button with a dash to zoom out, or on the green arrows for adjacent maps.


METAR-TAF: